KTAZ

Taylorville Municipal Airport

Taylorville, Illinois, USA
METAR KTAZ 211955Z AUTO 18013KT 10SM OVC010 13/12 A2988 RMK AO2 T01310115
Observed Flight Rules
Jan-21 @ 19:55 UTC (31 minutes ago) Marginal Visual Flight Rules
Wind Visibility Clouds
180° at 13 knots 10 miles
  • Overcast at 1,000' AGL
Temperatures Readings
Current 13°C / 55°F
Dewpoint 12°C / 54°F
Humidity 94%
Altimeter 29.88" Hg
Pressure 1012 hPa
Elevation 190
METAR KTAZ 211955Z AUTO 18013KT 10SM OVC010 13/12 A2988 RMK AO2 T01310115
Observed Flight Rules
Jan-21 @ 19:55 UTC
(31 minutes ago)
MVFR
Wind Visibility
180° at 13 knots 10 miles
Clouds
  • Overcast at 1,000' AGL
Temperature Dewpoint
13°C / 55°F 12°C / 54°F
Humidity Altimeter Pressure
94% 29.88" Hg 1012 hPa